createdAt,value
2023-01-30T00:03:02.389Z,20.33
2023-01-30T00:06:05.806Z,13.57
2023-01-30T00:09:13.877Z,11.75
2023-01-30T00:12:17.133Z,10.45
2023-01-30T00:15:20.031Z,10.57
2023-01-30T00:18:23.543Z,11.57
2023-01-30T00:21:26.552Z,10.77
2023-01-30T00:24:30.578Z,10.10
2023-01-30T00:27:33.625Z,10.52
2023-01-30T00:33:41.813Z,10.60
2023-01-30T00:36:46.610Z,10.90
2023-01-30T00:39:52.252Z,12.18
2023-01-30T00:43:14.601Z,12.50
2023-01-30T00:46:41.559Z,10.30
2023-01-30T00:49:45.815Z,13.05
2023-01-30T00:52:48.735Z,11.23
2023-01-30T00:55:55.043Z,13.18
2023-01-30T00:58:57.983Z,11.98
2023-01-30T01:02:01.337Z,13.15
2023-01-30T01:05:04.650Z,10.15
2023-01-30T01:08:08.030Z,13.40
2023-01-30T01:11:11.049Z,12.73
2023-01-30T01:14:14.350Z,12.43
2023-01-30T01:17:17.369Z,13.52
2023-01-30T01:20:22.368Z,14.13
2023-01-30T01:23:25.279Z,13.40
2023-01-30T01:26:28.790Z,12.73
2023-01-30T01:29:32.939Z,12.40
2023-01-30T01:32:36.188Z,12.35
2023-01-30T01:35:43.826Z,12.37
2023-01-30T01:38:47.155Z,12.82
2023-01-30T01:41:51.654Z,12.45
2023-01-30T01:48:47.574Z,11.55
2023-01-30T01:51:53.812Z,10.20
2023-01-30T01:55:00.420Z,13.23
2023-01-30T01:58:09.295Z,14.32
2023-01-30T02:01:12.377Z,13.80
2023-01-30T02:04:36.165Z,12.35
2023-01-30T02:07:51.037Z,12.45
2023-01-30T02:11:18.717Z,11.93
2023-01-30T02:14:22.245Z,11.73
2023-01-30T02:17:26.852Z,12.13
2023-01-30T02:20:52.792Z,12.45
2023-01-30T02:24:21.391Z,10.57
2023-01-30T02:27:36.469Z,12.93
2023-01-30T02:31:27.548Z,12.47
2023-01-30T02:34:37.064Z,12.70
2023-01-30T02:37:58.682Z,12.35
2023-01-30T02:41:12.965Z,14.87
2023-01-30T02:44:20.698Z,12.90
2023-01-30T02:47:34.449Z,12.70
2023-01-30T02:50:48.214Z,11.90
2023-01-30T02:53:51.901Z,14.87
2023-01-30T02:56:58.879Z,15.75
2023-01-30T03:00:04.284Z,14.55
2023-01-30T03:06:59.917Z,12.02
2023-01-30T03:10:09.215Z,11.63
2023-01-30T03:13:49.678Z,11.32
2023-01-30T03:16:55.555Z,14.85
2023-01-30T03:19:59.301Z,12.37
2023-01-30T03:23:02.288Z,12.30
2023-01-30T03:26:07.327Z,14.43
2023-01-30T03:29:10.635Z,12.25
2023-01-30T03:32:13.931Z,10.88
2023-01-30T03:35:18.333Z,16.48
2023-01-30T03:38:23.281Z,12.43
2023-01-30T03:41:26.509Z,13.02
2023-01-30T03:44:30.130Z,12.00
2023-01-30T03:47:33.130Z,12.57
2023-01-30T03:50:36.851Z,12.32
2023-01-30T03:53:39.803Z,14.38
2023-01-30T03:56:43.126Z,13.25
2023-01-30T03:59:46.337Z,11.75
2023-01-30T04:02:50.500Z,14.52
2023-01-30T04:05:53.875Z,13.68
2023-01-30T04:08:57.260Z,13.43
2023-01-30T04:12:01.297Z,12.65
2023-01-30T04:15:05.739Z,10.88
2023-01-30T04:18:11.750Z,12.48
2023-01-30T04:21:17.090Z,14.23
2023-01-30T04:24:21.254Z,11.68
2023-01-30T04:27:26.392Z,11.98
2023-01-30T04:30:32.364Z,12.52
2023-01-30T04:36:43.819Z,10.32
2023-01-30T04:39:48.811Z,11.10
2023-01-30T04:42:52.154Z,11.37
2023-01-30T04:45:58.434Z,12.57
2023-01-30T04:49:02.182Z,11.23
2023-01-30T04:52:05.525Z,11.68
2023-01-30T04:55:09.141Z,12.52
2023-01-30T04:58:12.187Z,12.73
2023-01-30T05:01:25.709Z,15.23
2023-01-30T05:04:29.726Z,12.90
2023-01-30T05:07:32.965Z,12.52
2023-01-30T05:10:35.952Z,13.20
2023-01-30T05:13:39.293Z,12.75
2023-01-30T05:16:42.389Z,12.55
2023-01-30T05:19:45.619Z,11.12
2023-01-30T05:22:48.551Z,12.90
2023-01-30T05:25:51.744Z,13.88
2023-01-30T05:28:56.310Z,14.35
2023-01-30T05:31:59.554Z,13.62
2023-01-30T05:35:02.565Z,13.07
2023-01-30T05:38:05.961Z,12.30
2023-01-30T05:41:10.303Z,11.23
2023-01-30T05:44:13.543Z,12.47
2023-01-30T05:47:17.568Z,12.75
2023-01-30T05:50:21.428Z,10.35
2023-01-30T05:53:26.911Z,11.90
2023-01-30T05:56:33.388Z,10.90
2023-01-30T05:59:36.536Z,11.43
2023-01-30T06:02:39.953Z,9.68
2023-01-30T06:05:43.453Z,10.77
2023-01-30T06:08:46.514Z,11.65
2023-01-30T06:11:52.513Z,11.82
2023-01-30T06:14:56.351Z,11.50
2023-01-30T06:17:59.627Z,11.48
2023-01-30T06:21:02.885Z,10.60
2023-01-30T06:24:06.551Z,10.52
2023-01-30T06:27:09.503Z,11.40
2023-01-30T06:30:13.675Z,11.20
2023-01-30T06:33:16.844Z,11.20
2023-01-30T06:36:21.209Z,11.60
2023-01-30T06:39:24.148Z,10.90
2023-01-30T06:42:28.256Z,12.18
2023-01-30T06:45:31.503Z,11.73
2023-01-30T06:48:34.904Z,11.10
2023-01-30T06:51:37.957Z,11.63
2023-01-30T06:54:41.584Z,19.83
2023-01-30T06:57:46.706Z,26.12
2023-01-30T07:00:50.772Z,26.95
2023-01-30T07:03:54.263Z,24.95
2023-01-30T07:06:57.640Z,25.77
2023-01-30T07:10:07.651Z,26.05
2023-01-30T07:13:13.119Z,20.17
2023-01-30T07:16:16.116Z,20.15
2023-01-30T07:19:19.347Z,27.73
2023-01-30T07:22:22.502Z,28.62
2023-01-30T07:25:26.949Z,28.15
2023-01-30T07:28:29.968Z,19.67
2023-01-30T07:31:33.213Z,14.02
2023-01-30T07:34:37.346Z,12.75
2023-01-30T07:37:40.708Z,23.30
2023-01-30T07:40:44.052Z,27.73
2023-01-30T07:43:49.124Z,27.87
2023-01-30T07:46:52.095Z,27.62
2023-01-30T07:49:55.101Z,28.65
2023-01-30T07:52:58.116Z,26.60
2023-01-30T07:56:07.684Z,18.02
2023-01-30T07:59:13.737Z,12.40
2023-01-30T08:02:17.282Z,13.48
2023-01-30T08:05:20.625Z,12.35
2023-01-30T08:08:23.519Z,11.30
2023-01-30T08:11:26.780Z,10.05
2023-01-30T08:14:29.879Z,10.48
2023-01-30T08:17:33.204Z,10.80
2023-01-30T08:20:36.569Z,11.02
2023-01-30T08:23:39.862Z,11.20
2023-01-30T08:26:42.815Z,11.55
2023-01-30T08:29:47.319Z,10.07
2023-01-30T08:32:50.368Z,11.68
2023-01-30T08:35:56.078Z,13.20
2023-01-30T08:42:03.040Z,13.27
2023-01-30T08:45:06.639Z,12.52
2023-01-30T08:48:10.076Z,12.68
2023-01-30T08:51:13.093Z,12.57
2023-01-30T08:54:16.886Z,12.57
2023-01-30T08:57:19.811Z,13.10
2023-01-30T09:00:23.339Z,14.43
2023-01-30T09:03:26.298Z,16.15
2023-01-30T09:06:29.527Z,14.52
2023-01-30T09:09:32.545Z,14.13
2023-01-30T09:12:35.993Z,14.32
2023-01-30T09:15:42.542Z,13.65
2023-01-30T09:18:46.913Z,13.25
2023-01-30T09:21:52.156Z,16.27
2023-01-30T09:24:55.456Z,16.10
2023-01-30T09:28:00.026Z,14.98
2023-01-30T09:34:08.314Z,14.57
2023-01-30T09:37:12.550Z,15.20
2023-01-30T09:40:23.352Z,14.97
2023-01-30T09:43:54.145Z,13.93
2023-01-30T09:47:11.929Z,13.98
2023-01-30T09:50:21.367Z,15.88
2023-01-30T09:53:29.599Z,14.43
2023-01-30T09:56:32.849Z,14.77
2023-01-30T09:59:52.153Z,16.10
2023-01-30T10:03:15.513Z,15.70
2023-01-30T10:06:20.477Z,19.10
2023-01-30T10:09:30.751Z,18.00
2023-01-30T10:12:58.738Z,18.77
2023-01-30T10:16:14.386Z,17.48
2023-01-30T10:19:34.637Z,18.65
2023-01-30T10:23:02.443Z,19.75
2023-01-30T10:26:10.981Z,20.67
2023-01-30T10:29:39.166Z,19.60
2023-01-30T10:32:44.784Z,20.45
2023-01-30T10:38:52.535Z,16.30
2023-01-30T10:42:19.959Z,17.08
2023-01-30T10:45:35.175Z,18.70
2023-01-30T10:48:51.504Z,20.05
2023-01-30T10:52:11.918Z,19.15
2023-01-30T10:55:37.125Z,18.80
2023-01-30T10:59:07.846Z,19.35
2023-01-30T11:02:36.559Z,18.98
2023-01-30T11:05:45.725Z,22.42
2023-01-30T11:08:48.723Z,21.75
2023-01-30T11:11:53.572Z,21.40
2023-01-30T11:15:01.578Z,20.53
2023-01-30T11:18:34.175Z,19.42
2023-01-30T11:21:43.088Z,18.83
2023-01-30T11:24:47.066Z,19.58
2023-01-30T11:28:01.064Z,18.48
2023-01-30T11:31:04.746Z,16.83
2023-01-30T11:34:16.387Z,16.87
2023-01-30T11:37:39.604Z,17.77
2023-01-30T11:40:42.629Z,20.25
2023-01-30T11:43:46.004Z,17.95
2023-01-30T11:46:49.616Z,14.68
2023-01-30T11:50:04.735Z,15.23
2023-01-30T11:53:47.878Z,14.75
2023-01-30T11:56:56.158Z,14.98
2023-01-30T12:00:00.666Z,13.62
2023-01-30T12:03:07.000Z,14.15
2023-01-30T12:06:10.451Z,13.07
2023-01-30T12:09:32.246Z,13.00
2023-01-30T12:12:45.806Z,12.20
2023-01-30T12:15:52.967Z,13.20
2023-01-30T12:19:02.398Z,15.20
2023-01-30T12:22:26.850Z,12.20
2023-01-30T12:25:35.895Z,11.07
2023-01-30T12:28:45.049Z,12.57
2023-01-30T12:31:52.161Z,13.35
2023-01-30T12:34:56.179Z,13.35
2023-01-30T12:38:24.417Z,11.30
2023-01-30T12:41:53.082Z,9.48
2023-01-30T12:45:04.158Z,9.77
2023-01-30T12:48:23.094Z,9.23
2023-01-30T12:52:07.819Z,9.35
2023-01-30T12:55:20.643Z,10.15
2023-01-30T12:58:43.772Z,10.15
2023-01-30T13:02:17.975Z,10.18
2023-01-30T13:05:45.141Z,9.05
2023-01-30T13:08:54.148Z,8.82
2023-01-30T13:12:14.476Z,8.32
2023-01-30T13:15:42.075Z,9.60
2023-01-30T13:18:54.681Z,8.75
2023-01-30T13:22:40.333Z,8.85
2023-01-30T13:26:03.635Z,9.27
2023-01-30T13:29:14.173Z,9.63
2023-01-30T13:32:25.096Z,9.98
2023-01-30T13:35:31.507Z,11.05
2023-01-30T13:38:41.851Z,11.70
2023-01-30T13:41:50.495Z,10.75
2023-01-30T13:44:55.914Z,11.38
2023-01-30T13:48:05.053Z,12.02
2023-01-30T13:51:17.489Z,11.60
2023-01-30T13:54:40.704Z,13.00
2023-01-30T13:57:53.502Z,12.00
2023-01-30T14:00:56.770Z,11.10
2023-01-30T14:04:40.510Z,11.57
2023-01-30T14:07:45.336Z,11.73
2023-01-30T14:10:49.307Z,11.45
2023-01-30T14:13:53.767Z,10.82
2023-01-30T14:17:08.529Z,12.05
2023-01-30T14:20:20.371Z,10.88
2023-01-30T14:23:31.031Z,11.00
2023-01-30T14:26:52.424Z,13.15
2023-01-30T14:29:56.358Z,12.98
2023-01-30T14:33:00.822Z,6.28
2023-01-30T14:36:07.618Z,12.85
2023-01-30T14:39:39.393Z,11.88
2023-01-30T14:42:44.209Z,10.57
2023-01-30T14:45:58.995Z,9.23
2023-01-30T14:49:19.392Z,10.18
2023-01-30T14:52:40.847Z,8.10
2023-01-30T14:55:44.129Z,8.32
2023-01-30T14:58:59.714Z,7.47
2023-01-30T15:02:15.264Z,8.65
2023-01-30T15:05:39.547Z,7.07
2023-01-30T15:08:44.007Z,7.80
2023-01-30T15:12:10.802Z,7.87
2023-01-30T15:15:13.992Z,8.38
2023-01-30T15:19:02.849Z,9.85
2023-01-30T15:22:49.715Z,8.82
2023-01-30T15:26:01.824Z,9.48
2023-01-30T15:29:05.133Z,8.30
2023-01-30T15:32:18.605Z,10.55
2023-01-30T15:35:24.890Z,10.25
2023-01-30T15:38:31.623Z,11.38
2023-01-30T15:41:42.585Z,10.23
2023-01-30T15:45:04.536Z,11.40
2023-01-30T15:48:35.509Z,12.18
2023-01-30T15:51:39.355Z,11.88
2023-01-30T15:54:49.959Z,11.73
2023-01-30T15:57:57.862Z,12.32
2023-01-30T16:01:02.285Z,13.90
2023-01-30T16:04:08.164Z,12.82
2023-01-30T16:07:24.040Z,13.18
2023-01-30T16:10:30.202Z,13.23
2023-01-30T16:13:35.125Z,13.23
2023-01-30T16:16:40.279Z,13.27
2023-01-30T16:19:44.682Z,13.00
2023-01-30T16:22:49.613Z,14.87
2023-01-30T16:25:55.448Z,12.37
2023-01-30T16:29:07.636Z,13.10
2023-01-30T16:32:15.031Z,13.77
2023-01-30T16:35:27.161Z,13.35
2023-01-30T16:38:38.276Z,11.48
2023-01-30T16:41:43.762Z,13.30
2023-01-30T16:44:47.301Z,11.15
2023-01-30T16:47:50.738Z,10.95
2023-01-30T16:51:00.863Z,10.00
2023-01-30T16:54:05.278Z,10.50
2023-01-30T16:57:41.606Z,11.80
2023-01-30T17:00:51.132Z,10.85
2023-01-30T17:04:00.985Z,10.07
2023-01-30T17:07:05.145Z,9.07
2023-01-30T17:10:28.656Z,8.57
2023-01-30T17:13:34.149Z,6.75
2023-01-30T17:16:39.416Z,7.37
2023-01-30T17:22:48.102Z,9.50
2023-01-30T17:25:51.914Z,9.80
2023-01-30T17:28:55.218Z,6.55
2023-01-30T17:32:01.136Z,9.32
2023-01-30T17:38:09.722Z,6.05
2023-01-30T17:41:21.845Z,10.02
2023-01-30T17:44:26.250Z,9.73
2023-01-30T17:47:29.402Z,8.57
2023-01-30T17:50:33.999Z,8.75
2023-01-30T17:53:38.153Z,8.10
2023-01-30T17:56:42.809Z,10.23
2023-01-30T17:59:48.502Z,10.13
2023-01-30T18:02:53.912Z,12.05
2023-01-30T18:05:58.146Z,11.63
2023-01-30T18:09:02.063Z,11.75
2023-01-30T18:12:07.731Z,11.35
2023-01-30T18:15:16.428Z,11.30
2023-01-30T18:18:20.564Z,8.70
2023-01-30T18:21:25.269Z,10.57
2023-01-30T18:24:33.518Z,10.82
2023-01-30T18:27:37.058Z,10.77
2023-01-30T18:30:42.609Z,10.30
2023-01-30T18:33:48.524Z,7.72
2023-01-30T18:36:55.197Z,5.70
2023-01-30T18:39:59.823Z,8.05
2023-01-30T18:43:04.648Z,6.87
2023-01-30T18:46:12.994Z,8.85
2023-01-30T18:49:17.644Z,7.95
2023-01-30T18:52:23.838Z,9.98
2023-01-30T18:55:28.366Z,8.38
2023-01-30T18:58:33.158Z,9.70
2023-01-30T19:01:40.827Z,8.85
2023-01-30T19:04:45.299Z,7.82
2023-01-30T19:07:49.714Z,6.18
2023-01-30T19:10:55.060Z,7.50
2023-01-30T19:17:05.243Z,8.23
2023-01-30T19:20:12.675Z,8.77
2023-01-30T19:23:17.407Z,7.10
2023-01-30T19:26:24.685Z,8.60
2023-01-30T19:29:28.995Z,8.57
2023-01-30T19:32:36.286Z,7.10
2023-01-30T19:35:42.550Z,7.85
2023-01-30T19:38:50.290Z,8.13
2023-01-30T19:41:54.583Z,7.37
2023-01-30T19:45:00.630Z,7.62
2023-01-30T19:48:04.751Z,7.18
2023-01-30T19:51:22.808Z,7.43
2023-01-30T19:54:28.180Z,6.25
2023-01-30T20:00:37.808Z,5.72
2023-01-30T20:03:43.109Z,5.72
2023-01-30T20:06:49.803Z,6.50
2023-01-30T20:09:54.588Z,5.68
2023-01-30T20:12:58.341Z,6.72
2023-01-30T20:16:11.434Z,5.15
2023-01-30T20:19:17.624Z,5.12
2023-01-30T20:22:23.046Z,6.30
2023-01-30T20:25:28.369Z,5.97
2023-01-30T20:28:34.981Z,5.05
2023-01-30T20:31:39.915Z,5.43
2023-01-30T20:34:46.754Z,4.57
2023-01-30T20:37:51.368Z,4.65
2023-01-30T20:41:05.316Z,3.67
2023-01-30T20:44:14.198Z,4.35
2023-01-30T20:47:19.726Z,4.12
2023-01-30T20:50:25.117Z,3.78
2023-01-30T20:53:31.334Z,4.00
2023-01-30T20:56:38.285Z,3.85
2023-01-30T20:59:43.653Z,4.47
2023-01-30T21:02:51.810Z,4.20
2023-01-30T21:05:57.992Z,3.97
2023-01-30T21:09:02.489Z,3.60
2023-01-30T21:12:07.063Z,4.87
2023-01-30T21:15:10.519Z,4.57
2023-01-30T21:18:13.969Z,4.40
2023-01-30T21:21:21.836Z,4.22
2023-01-30T21:24:29.611Z,4.45
2023-01-30T21:27:34.089Z,3.90
2023-01-30T21:30:39.311Z,3.70
2023-01-30T21:37:06.117Z,3.95
2023-01-30T21:40:43.015Z,4.00
2023-01-30T21:43:48.971Z,4.60
2023-01-30T21:46:53.723Z,4.90
2023-01-30T21:49:57.761Z,4.85
2023-01-30T21:53:01.994Z,4.25
2023-01-30T21:56:05.868Z,3.83
2023-01-30T21:59:08.949Z,3.80
2023-01-30T22:02:12.546Z,3.83
2023-01-30T22:05:16.123Z,3.83
2023-01-30T22:08:20.182Z,3.95
2023-01-30T22:11:24.068Z,5.07
2023-01-30T22:14:27.242Z,4.87
2023-01-30T22:17:30.718Z,5.55
2023-01-30T22:20:33.793Z,6.05
2023-01-30T22:23:39.583Z,6.15
2023-01-30T22:26:44.214Z,5.45
2023-01-30T22:29:47.806Z,6.20
2023-01-30T22:32:55.794Z,9.73
2023-01-30T22:36:01.240Z,5.32
2023-01-30T22:39:05.209Z,4.85
2023-01-30T22:42:09.028Z,4.25
2023-01-30T22:45:12.009Z,4.35
2023-01-30T22:48:16.774Z,4.10
2023-01-30T22:51:25.482Z,4.47
2023-01-30T22:54:28.799Z,3.97
2023-01-30T22:57:31.901Z,6.37
2023-01-30T23:00:36.179Z,6.57
2023-01-30T23:03:40.466Z,9.13
2023-01-30T23:06:44.736Z,4.03
2023-01-30T23:09:48.061Z,3.85
2023-01-30T23:13:06.623Z,3.62
2023-01-30T23:16:10.875Z,3.92
2023-01-30T23:19:14.129Z,3.37
2023-01-30T23:22:17.230Z,3.58
2023-01-30T23:25:20.895Z,4.15
2023-01-30T23:28:24.237Z,3.17
2023-01-30T23:31:28.514Z,3.40
2023-01-30T23:34:31.736Z,2.30
2023-01-30T23:37:54.013Z,2.75
2023-01-30T23:41:08.864Z,2.97
2023-01-30T23:44:12.526Z,1.50
2023-01-30T23:47:15.768Z,1.58
2023-01-30T23:50:19.141Z,2.60
2023-01-30T23:53:22.447Z,2.67
2023-01-30T23:56:27.765Z,1.95
2023-01-30T23:59:30.778Z,2.05
